createdAt,value
2018-11-29T00:02:21.113Z,58.70
2018-11-29T00:05:27.762Z,58.70
2018-11-29T00:08:41.789Z,58.70
2018-11-29T00:11:37.978Z,58.70
2018-11-29T00:14:34.635Z,58.70
2018-11-29T00:17:31.274Z,58.70
2018-11-29T00:20:30.623Z,58.70
2018-11-29T00:23:26.748Z,58.80
2018-11-29T00:26:23.368Z,58.60
2018-11-29T00:29:19.659Z,58.60
2018-11-29T00:32:16.875Z,58.60
2018-11-29T00:35:14.899Z,58.60
2018-11-29T00:38:11.183Z,58.60
2018-11-29T00:41:11.423Z,58.60
2018-11-29T00:44:07.280Z,58.70
2018-11-29T00:47:03.387Z,58.60
2018-11-29T00:49:59.241Z,58.60
2018-11-29T00:52:55.838Z,58.60
2018-11-29T00:55:54.317Z,58.70
2018-11-29T00:58:50.684Z,58.80
2018-11-29T01:02:04.672Z,58.80
2018-11-29T01:05:00.552Z,58.70
2018-11-29T01:07:58.915Z,58.70
2018-11-29T01:10:55.935Z,58.70
2018-11-29T01:13:52.015Z,58.70
2018-11-29T01:16:48.301Z,58.90
2018-11-29T01:19:44.783Z,58.90
2018-11-29T01:22:41.333Z,58.70
2018-11-29T01:25:36.804Z,58.70
2018-11-29T01:28:33.201Z,58.70
2018-11-29T01:31:29.194Z,58.70
2018-11-29T01:34:25.785Z,58.60
2018-11-29T01:37:21.847Z,58.70
2018-11-29T01:40:25.073Z,58.80
2018-11-29T01:43:20.500Z,58.20
2018-11-29T01:46:16.947Z,58.80
2018-11-29T01:49:12.881Z,58.70
2018-11-29T01:52:08.947Z,58.80
2018-11-29T01:55:04.769Z,58.90
2018-11-29T01:58:01.070Z,58.70
2018-11-29T02:00:57.199Z,58.80
2018-11-29T02:03:53.246Z,58.90
2018-11-29T02:06:49.199Z,59.10
2018-11-29T02:09:45.354Z,59.00
2018-11-29T02:12:41.440Z,58.50
2018-11-29T02:15:37.432Z,58.30
2018-11-29T02:18:33.503Z,58.50
2018-11-29T02:21:32.550Z,58.60
2018-11-29T02:24:29.031Z,58.70
2018-11-29T02:27:24.910Z,58.60
2018-11-29T02:30:30.744Z,58.60
2018-11-29T02:33:24.147Z,58.70
2018-11-29T02:36:20.385Z,58.70
2018-11-29T02:39:17.418Z,58.70
2018-11-29T02:42:13.766Z,58.70
2018-11-29T02:45:11.088Z,58.80
2018-11-29T02:48:07.887Z,58.80
2018-11-29T02:51:03.799Z,58.70
2018-11-29T02:54:00.212Z,58.60
2018-11-29T02:56:56.659Z,58.40
2018-11-29T02:59:53.310Z,58.50
2018-11-29T03:02:50.034Z,58.50
2018-11-29T03:05:46.113Z,58.60
2018-11-29T03:08:43.112Z,58.70
2018-11-29T03:11:42.077Z,58.10
2018-11-29T03:14:38.760Z,58.40
2018-11-29T03:17:35.761Z,58.10
2018-11-29T03:20:32.148Z,58.50
2018-11-29T03:23:27.946Z,58.10
2018-11-29T03:26:24.099Z,58.30
2018-11-29T03:29:19.970Z,58.50
2018-11-29T03:32:17.079Z,58.50
2018-11-29T03:35:13.895Z,58.50
2018-11-29T03:38:10.479Z,58.50
2018-11-29T03:41:08.097Z,58.30
2018-11-29T03:44:16.365Z,58.10
2018-11-29T03:47:25.434Z,58.30
2018-11-29T03:50:23.566Z,58.00
2018-11-29T03:53:20.513Z,57.70
2018-11-29T03:56:16.496Z,57.90
2018-11-29T03:59:12.679Z,58.20
2018-11-29T04:02:09.255Z,57.50
2018-11-29T04:05:05.812Z,57.60
2018-11-29T04:08:02.222Z,57.70
2018-11-29T04:11:02.678Z,58.20
2018-11-29T04:13:55.665Z,58.20
2018-11-29T04:16:51.838Z,57.50
2018-11-29T04:19:48.682Z,57.80
2018-11-29T04:22:45.315Z,57.30
2018-11-29T04:25:41.726Z,57.30
2018-11-29T04:28:37.847Z,57.30
2018-11-29T04:31:35.787Z,57.50
2018-11-29T04:34:32.753Z,57.30
2018-11-29T04:37:29.391Z,57.20
2018-11-29T04:40:26.002Z,57.50
2018-11-29T04:43:22.133Z,57.10
2018-11-29T04:46:52.040Z,56.70
2018-11-29T04:49:48.539Z,56.10
2018-11-29T04:52:44.571Z,56.40
2018-11-29T04:55:40.876Z,56.30
2018-11-29T04:58:36.750Z,56.10
2018-11-29T05:01:32.698Z,56.20
2018-11-29T05:04:31.605Z,55.90
2018-11-29T05:07:27.825Z,56.00
2018-11-29T05:10:25.174Z,55.90
2018-11-29T05:13:22.630Z,55.90
2018-11-29T05:16:20.103Z,56.10
2018-11-29T05:19:18.103Z,56.00
2018-11-29T05:22:15.885Z,56.10
2018-11-29T05:25:14.121Z,56.50
2018-11-29T05:28:15.118Z,56.20
2018-11-29T05:31:13.131Z,56.50
2018-11-29T05:34:11.021Z,56.80
2018-11-29T05:37:08.332Z,56.50
2018-11-29T05:40:06.425Z,56.40
2018-11-29T05:43:03.506Z,56.50
2018-11-29T05:46:01.110Z,56.50
2018-11-29T05:48:58.728Z,56.70
2018-11-29T05:51:54.924Z,57.00
2018-11-29T05:54:56.804Z,56.60
2018-11-29T05:57:56.323Z,56.90
2018-11-29T06:00:54.031Z,57.10
2018-11-29T06:03:56.508Z,57.20
2018-11-29T06:07:02.791Z,57.30
2018-11-29T06:10:07.964Z,57.40
2018-11-29T06:13:05.538Z,57.40
2018-11-29T06:16:03.792Z,57.50
2018-11-29T06:19:09.974Z,57.60
2018-11-29T06:22:07.170Z,57.60
2018-11-29T06:25:03.744Z,57.60
2018-11-29T06:28:03.172Z,57.70
2018-11-29T06:31:00.510Z,57.80
2018-11-29T06:33:56.750Z,57.80
2018-11-29T06:37:00.370Z,58.00
2018-11-29T06:39:56.789Z,58.00
2018-11-29T06:42:53.109Z,58.20
2018-11-29T06:45:50.691Z,58.20
2018-11-29T06:48:50.489Z,58.20
2018-11-29T06:51:47.148Z,58.20
2018-11-29T06:54:43.132Z,58.30
2018-11-29T06:57:39.662Z,58.30
2018-11-29T07:00:35.630Z,58.50
2018-11-29T07:03:32.573Z,58.60
2018-11-29T07:06:34.664Z,58.60
2018-11-29T07:09:28.402Z,58.80
2018-11-29T07:12:26.728Z,58.90
2018-11-29T07:15:27.509Z,59.10
2018-11-29T07:18:26.913Z,59.10
2018-11-29T07:22:10.195Z,59.20
2018-11-29T07:25:09.020Z,59.30
2018-11-29T07:28:10.956Z,59.50
2018-11-29T07:31:07.879Z,59.50
2018-11-29T07:34:08.774Z,59.50
2018-11-29T07:37:17.262Z,59.50
2018-11-29T07:40:22.625Z,59.50
2018-11-29T07:43:21.185Z,59.50
2018-11-29T07:46:40.238Z,59.60
2018-11-29T07:49:34.364Z,59.50
2018-11-29T07:52:31.035Z,59.60
2018-11-29T07:55:28.260Z,59.60
2018-11-29T07:58:34.182Z,59.60
2018-11-29T08:01:32.723Z,59.80
2018-11-29T08:04:31.233Z,59.90
2018-11-29T08:07:29.014Z,59.90
2018-11-29T08:10:28.627Z,60.00
2018-11-29T08:13:25.189Z,60.00
2018-11-29T08:16:22.350Z,60.00
2018-11-29T08:19:19.912Z,60.00
2018-11-29T08:22:17.060Z,60.00
2018-11-29T08:25:13.709Z,60.20
2018-11-29T08:28:10.114Z,60.10
2018-11-29T08:31:06.236Z,60.20
2018-11-29T08:34:02.660Z,60.20
2018-11-29T08:36:58.578Z,60.30
2018-11-29T08:39:54.672Z,60.30
2018-11-29T08:42:51.565Z,60.30
2018-11-29T08:45:48.422Z,60.30
2018-11-29T08:48:45.724Z,60.30
2018-11-29T08:51:43.212Z,60.40
2018-11-29T08:54:40.329Z,60.50
2018-11-29T08:57:38.499Z,60.50
2018-11-29T09:00:38.323Z,60.60
2018-11-29T09:03:38.491Z,60.70
2018-11-29T09:06:37.887Z,60.70
2018-11-29T09:09:35.814Z,60.80
2018-11-29T09:12:33.598Z,60.70
2018-11-29T09:15:33.303Z,60.80
2018-11-29T09:18:49.899Z,60.70
2018-11-29T09:21:57.219Z,60.70
2018-11-29T09:25:05.017Z,60.70
2018-11-29T09:28:12.184Z,60.70
2018-11-29T09:31:11.312Z,60.50
2018-11-29T09:34:10.066Z,60.40
2018-11-29T09:37:09.136Z,60.10
2018-11-29T09:40:08.472Z,60.20
2018-11-29T09:43:07.735Z,60.00
2018-11-29T09:46:07.828Z,59.90
2018-11-29T09:49:07.651Z,59.90
2018-11-29T09:52:05.676Z,59.90
2018-11-29T09:55:04.692Z,59.80
2018-11-29T09:58:05.139Z,59.70
2018-11-29T10:01:03.907Z,59.70
2018-11-29T10:04:02.994Z,59.70
2018-11-29T10:07:02.125Z,59.70
2018-11-29T10:10:00.422Z,59.70
2018-11-29T10:13:03.451Z,59.80
2018-11-29T10:15:59.543Z,59.90
2018-11-29T10:18:59.112Z,59.90
2018-11-29T10:22:02.166Z,59.80
2018-11-29T10:25:00.796Z,59.70
2018-11-29T10:28:13.201Z,59.70
2018-11-29T10:31:19.186Z,59.70
2018-11-29T10:34:17.858Z,59.60
2018-11-29T10:37:17.285Z,59.70
2018-11-29T10:40:19.556Z,56.70
2018-11-29T10:43:19.180Z,57.10
2018-11-29T10:46:17.018Z,58.00
2018-11-29T10:49:15.398Z,58.20
2018-11-29T10:52:15.750Z,58.50
2018-11-29T10:55:18.775Z,59.30
2018-11-29T10:58:21.851Z,59.60
2018-11-29T11:01:53.101Z,59.80
2018-11-29T11:04:50.531Z,60.00
2018-11-29T11:07:47.861Z,60.40
2018-11-29T11:10:45.565Z,60.90
2018-11-29T11:13:43.396Z,61.10
2018-11-29T11:16:40.960Z,61.60
2018-11-29T11:19:41.012Z,61.70
2018-11-29T11:22:39.854Z,61.90
2018-11-29T11:25:37.862Z,62.10
2018-11-29T11:28:35.698Z,62.30
2018-11-29T11:31:34.761Z,62.50
2018-11-29T11:34:34.207Z,62.60
2018-11-29T11:37:31.162Z,62.30
2018-11-29T11:40:29.119Z,62.40
2018-11-29T11:43:27.564Z,62.40
2018-11-29T11:46:25.339Z,62.40
2018-11-29T11:49:23.582Z,62.30
2018-11-29T11:52:21.252Z,62.30
2018-11-29T11:55:19.412Z,62.30
2018-11-29T11:58:17.765Z,62.30
2018-11-29T12:01:16.761Z,62.30
2018-11-29T12:04:14.285Z,62.30
2018-11-29T12:07:16.544Z,62.30
2018-11-29T12:10:24.578Z,62.30
2018-11-29T12:13:22.230Z,62.30
2018-11-29T12:16:19.968Z,62.30
2018-11-29T12:19:17.585Z,62.30
2018-11-29T12:22:18.221Z,62.20
2018-11-29T12:25:34.578Z,62.10
2018-11-29T12:28:32.553Z,62.10
2018-11-29T12:31:29.991Z,62.00
2018-11-29T12:34:27.573Z,62.10
2018-11-29T12:37:25.046Z,62.10
2018-11-29T12:40:23.140Z,62.10
2018-11-29T12:43:21.230Z,62.00
2018-11-29T12:46:18.298Z,61.90
2018-11-29T12:49:15.568Z,61.70
2018-11-29T12:52:12.977Z,61.70
2018-11-29T12:55:15.106Z,61.60
2018-11-29T12:58:15.523Z,61.60
2018-11-29T13:01:10.332Z,61.60
2018-11-29T13:04:10.695Z,61.50
2018-11-29T13:07:11.585Z,61.50
2018-11-29T13:10:14.457Z,61.60
2018-11-29T13:13:12.306Z,61.60
2018-11-29T13:16:09.283Z,61.60
2018-11-29T13:19:06.600Z,61.50
2018-11-29T13:22:03.768Z,61.40
2018-11-29T13:25:03.015Z,61.40
2018-11-29T13:28:02.906Z,61.40
2018-11-29T13:30:59.871Z,61.20
2018-11-29T13:33:56.794Z,61.10
2018-11-29T13:36:53.342Z,61.00
2018-11-29T13:39:50.390Z,61.10
2018-11-29T13:42:47.027Z,61.10
2018-11-29T13:45:44.114Z,61.10
2018-11-29T13:48:41.870Z,61.10
2018-11-29T13:51:38.594Z,61.00
2018-11-29T13:54:35.574Z,61.10
2018-11-29T13:57:32.571Z,61.20
2018-11-29T14:00:33.520Z,61.10
2018-11-29T14:03:30.672Z,61.10
2018-11-29T14:06:27.931Z,61.10
2018-11-29T14:09:25.717Z,62.00
2018-11-29T14:12:22.511Z,61.10
2018-11-29T14:15:30.220Z,61.10
2018-11-29T14:18:27.004Z,61.10
2018-11-29T14:21:23.726Z,61.20
2018-11-29T14:24:20.550Z,61.30
2018-11-29T14:27:17.655Z,61.30
2018-11-29T14:30:23.128Z,61.30
2018-11-29T14:33:20.172Z,61.20
2018-11-29T14:36:17.393Z,61.20
2018-11-29T14:39:14.535Z,61.10
2018-11-29T14:42:15.542Z,61.30
2018-11-29T14:45:20.829Z,61.20
2018-11-29T14:48:14.709Z,61.20
2018-11-29T14:51:12.039Z,61.20
2018-11-29T14:54:08.794Z,61.30
2018-11-29T14:57:05.658Z,61.20
2018-11-29T15:00:09.153Z,61.10
2018-11-29T15:03:07.041Z,61.10
2018-11-29T15:06:04.946Z,61.10
2018-11-29T15:09:02.155Z,61.00
2018-11-29T15:11:59.365Z,61.10
2018-11-29T15:14:56.952Z,61.10
2018-11-29T15:17:54.398Z,61.20
2018-11-29T15:20:58.370Z,61.10
2018-11-29T15:23:59.774Z,61.20
2018-11-29T15:26:56.586Z,61.10
2018-11-29T15:29:53.633Z,61.10
2018-11-29T15:32:50.469Z,61.10
2018-11-29T15:35:46.940Z,61.10
2018-11-29T15:38:43.725Z,61.10
2018-11-29T15:41:40.486Z,61.10
2018-11-29T15:44:37.315Z,61.10
2018-11-29T15:47:34.466Z,61.10
2018-11-29T15:50:31.685Z,61.10
2018-11-29T15:53:28.815Z,61.10
2018-11-29T15:56:25.700Z,61.10
2018-11-29T15:59:22.574Z,61.10
2018-11-29T16:02:19.857Z,61.10
2018-11-29T16:05:16.959Z,61.10
2018-11-29T16:08:14.628Z,61.10
2018-11-29T16:11:11.524Z,61.10
2018-11-29T16:14:08.465Z,61.30
2018-11-29T16:17:06.221Z,61.30
2018-11-29T16:20:03.565Z,61.20
2018-11-29T16:23:00.000Z,61.10
2018-11-29T16:25:58.068Z,61.10
2018-11-29T16:28:57.785Z,61.00
2018-11-29T16:31:55.224Z,61.00
2018-11-29T16:34:52.387Z,60.90
2018-11-29T16:37:49.692Z,60.80
2018-11-29T16:40:47.166Z,60.70
2018-11-29T16:43:45.894Z,60.70
2018-11-29T16:46:43.851Z,60.80
2018-11-29T16:49:41.854Z,60.80
2018-11-29T16:52:39.083Z,60.90
2018-11-29T16:55:36.473Z,60.90
2018-11-29T16:58:35.394Z,61.00
2018-11-29T17:01:32.587Z,60.90
2018-11-29T17:04:29.674Z,60.90
2018-11-29T17:07:26.979Z,61.00
2018-11-29T17:10:25.155Z,61.00
2018-11-29T17:13:25.735Z,61.00
2018-11-29T17:16:22.844Z,61.10
2018-11-29T17:19:22.775Z,61.00
2018-11-29T17:22:20.160Z,60.90
2018-11-29T17:25:17.908Z,60.90
2018-11-29T17:28:14.876Z,60.90
2018-11-29T17:31:11.927Z,61.00
2018-11-29T17:34:07.953Z,60.80
2018-11-29T17:37:04.148Z,60.90
2018-11-29T17:39:59.968Z,60.80
2018-11-29T17:42:56.902Z,60.80
2018-11-29T17:45:53.017Z,60.90
2018-11-29T17:48:49.076Z,60.80
2018-11-29T17:51:47.712Z,61.70
2018-11-29T17:54:44.843Z,60.80
2018-11-29T17:57:41.026Z,60.70
2018-11-29T18:00:41.561Z,60.80
2018-11-29T18:03:37.785Z,60.70
2018-11-29T18:06:34.065Z,60.70
2018-11-29T18:09:29.849Z,60.50
2018-11-29T18:12:26.322Z,60.50
2018-11-29T18:15:33.075Z,60.50
2018-11-29T18:18:29.453Z,60.60
2018-11-29T18:21:25.566Z,60.50
2018-11-29T18:24:21.453Z,60.50
2018-11-29T18:27:17.698Z,60.50
2018-11-29T18:30:23.819Z,60.50
2018-11-29T18:33:20.253Z,60.60
2018-11-29T18:36:16.385Z,60.50
2018-11-29T18:39:14.778Z,60.50
2018-11-29T18:42:10.789Z,60.60
2018-11-29T18:45:17.552Z,60.50
2018-11-29T18:48:14.124Z,60.50
2018-11-29T18:51:10.430Z,60.50
2018-11-29T18:54:06.918Z,60.50
2018-11-29T18:57:03.664Z,60.60
2018-11-29T18:59:59.640Z,60.60
2018-11-29T19:02:57.142Z,60.70
2018-11-29T19:05:51.879Z,60.70
2018-11-29T19:08:48.708Z,60.70
2018-11-29T19:11:45.126Z,60.80
2018-11-29T19:14:41.856Z,60.80
2018-11-29T19:17:38.860Z,60.70
2018-11-29T19:20:35.202Z,60.90
2018-11-29T19:23:31.666Z,60.70
2018-11-29T19:26:27.949Z,60.70
2018-11-29T19:29:24.315Z,60.70
2018-11-29T19:32:20.657Z,60.60
2018-11-29T19:35:17.290Z,60.50
2018-11-29T19:38:14.158Z,60.40
2018-11-29T19:41:10.150Z,60.40
2018-11-29T19:44:06.359Z,60.30
2018-11-29T19:47:03.538Z,60.30
2018-11-29T19:49:59.655Z,60.30
2018-11-29T19:52:59.904Z,60.30
2018-11-29T19:56:03.118Z,60.30
2018-11-29T19:58:59.224Z,60.30
2018-11-29T20:01:55.702Z,60.20
2018-11-29T20:04:55.285Z,60.20
2018-11-29T20:07:51.738Z,60.30
2018-11-29T20:10:48.791Z,60.30
2018-11-29T20:13:45.855Z,60.40
2018-11-29T20:16:42.132Z,60.50
2018-11-29T20:19:38.293Z,60.50
2018-11-29T20:22:34.545Z,60.50
2018-11-29T20:25:31.409Z,60.50
2018-11-29T20:28:27.272Z,60.30
2018-11-29T20:31:23.290Z,60.40
2018-11-29T20:34:22.548Z,60.30
2018-11-29T20:37:18.828Z,60.30
2018-11-29T20:40:26.109Z,60.30
2018-11-29T20:43:25.393Z,60.40
2018-11-29T20:46:21.626Z,60.40
2018-11-29T20:49:18.079Z,60.40
2018-11-29T20:52:14.742Z,60.40
2018-11-29T20:55:13.248Z,60.40
2018-11-29T20:58:09.946Z,60.30
2018-11-29T21:01:07.276Z,60.30
2018-11-29T21:04:03.678Z,60.20
2018-11-29T21:07:02.688Z,60.10
2018-11-29T21:10:02.899Z,60.10
2018-11-29T21:12:55.465Z,60.10
2018-11-29T21:15:51.664Z,60.10
2018-11-29T21:18:48.080Z,60.10
2018-11-29T21:21:44.603Z,60.10
2018-11-29T21:24:40.639Z,60.10
2018-11-29T21:27:36.654Z,60.20
2018-11-29T21:30:33.607Z,60.10
2018-11-29T21:33:29.346Z,60.20
2018-11-29T21:36:25.690Z,60.20
2018-11-29T21:39:28.906Z,60.20
2018-11-29T21:42:21.735Z,60.30
2018-11-29T21:45:18.855Z,60.30
2018-11-29T21:48:15.073Z,60.10
2018-11-29T21:51:11.747Z,60.10
2018-11-29T21:54:07.980Z,60.10
2018-11-29T21:57:04.720Z,60.10
2018-11-29T22:00:00.907Z,60.20
2018-11-29T22:02:58.355Z,60.10
2018-11-29T22:05:54.478Z,60.20
2018-11-29T22:08:50.893Z,60.10
2018-11-29T22:11:56.440Z,60.00
2018-11-29T22:14:53.375Z,60.10
2018-11-29T22:18:17.521Z,60.10
2018-11-29T22:21:14.185Z,60.20
2018-11-29T22:24:12.734Z,60.20
2018-11-29T22:27:08.987Z,60.20
2018-11-29T22:30:05.071Z,60.20
2018-11-29T22:33:01.997Z,60.10
2018-11-29T22:35:58.392Z,60.10
2018-11-29T22:38:58.096Z,60.00
2018-11-29T22:41:54.404Z,60.10
2018-11-29T22:44:50.869Z,59.80
2018-11-29T22:47:47.807Z,60.00
2018-11-29T22:50:46.392Z,60.00
2018-11-29T22:53:45.480Z,60.00
2018-11-29T22:56:39.784Z,60.10
2018-11-29T22:59:36.105Z,60.20
2018-11-29T23:02:32.459Z,60.40
2018-11-29T23:05:32.463Z,60.20
2018-11-29T23:08:28.779Z,60.10
2018-11-29T23:11:25.689Z,60.00
2018-11-29T23:14:21.765Z,60.30
2018-11-29T23:17:18.170Z,60.20
2018-11-29T23:20:20.904Z,60.10
2018-11-29T23:23:17.310Z,60.40
2018-11-29T23:26:13.610Z,60.00
2018-11-29T23:29:10.267Z,60.00
2018-11-29T23:32:06.273Z,60.30
2018-11-29T23:35:02.682Z,60.30
2018-11-29T23:38:01.615Z,59.90
2018-11-29T23:40:58.014Z,60.10
2018-11-29T23:43:54.473Z,60.40
2018-11-29T23:46:52.042Z,60.20
2018-11-29T23:49:51.219Z,60.20
2018-11-29T23:52:47.812Z,60.20
2018-11-29T23:55:47.814Z,60.00
2018-11-29T23:58:44.305Z,60.10
